Washburn, ND

1:48 PM CDT on September 03, 2015 (GMT -0500)
Washburn, ND | | Change Station
CLOSE
Current Station
Personal Weather Station
Location: Washburn, ND
Elevation: 1864 ft
Nearby Weather Stations

Elev 1864 ft 47.30 °N, 101.03 °W | Updated 11 minutes ago

Clear
Clear
94.1 °F
Feels Like 99 °F
N
3.7
Wind Variable Wind from ESE

Today
High -- | Low -- °F
--% Chance of Precip.
Yesterday
High -- | Low -- °F
Precip. -- in
7:05 AM 8:20 PM
Waning Gibbous, 68% visible
Pressure 29.70 in
Visibility 10.0 miles
Clouds Clear
Heat Index 99 °F
Dew Point 68 °F
Humidity 43%
Rainfall 0.00 in
Snow Depth Not available.
UV 8 out of 12
Pollen 11.00 out of 12
Air Quality Not available.
Flu Activity Not available.
METAR KY19 031815Z AUTO 21011G15KT 10SM CLR 32/15 A2970 RMK AO2
Pressure 29.70 in
Visibility 10.0 miles
Clouds Clear
Heat Index 99 °F
Dew Point 68 °F
Humidity 43%
Rainfall 0.00 in
Snow Depth Not available.
UV 8 out of 12
Pollen 11.00 out of 12
Air Quality Not available.
Flu Activity Not available.
METAR KY19 031815Z AUTO 21011G15KT 10SM CLR 32/15 A2970 RMK AO2

10-Day Weather Forecast

×

Almanac

Astronomy

Sep. 03, 2015 Rise Set
Actual Time
Civil Twilight
Nautical Twilight
Astronomical Twilight
Moon
Length of Visible Light
Length of Day
Tomorrow will be .
, % of the Moon is Illuminated

Today's Extremes

State Highs State Lows

Community

WunderPhotos

Upload Photos

1,852,001 photos uploaded!

WunderBlogs® & News

Nearby

Air Quality

  Air Quality AQ Index Pollutant
Not available.

Snow Depth

Station Depth Elevation

Earthquake Activity

City Distance Mag. Time & Date
Minimum magnitude displayed is 2.5.

Coastal Water Temperatures

Place Temperature

Stations

Nearby Weather Stations

Station Location Temp. Windchill Dew Point Humidity Wind Precip. Elev Updated Type